map of KTMK home
KTMK - Airport
Location
City:  Tillamook, Oregon, United States
ICAO:KTMK
FAA LID:TMK

Details
Type:Airport (Airfield)
Use:Public/Civil
Latitude:4525'06"N (45.418250)
Longitude:12348'52"W (-123.814388)
Datum:WGS 1984
Elevation:39 ft (12 m)
Variation:15.33E (WMM2015 magnetic declination)
-0.13 annual change
Runways:2
Longest:5001 × 75 ft (1524 × 23 m), paved

Time
Time Zone:UTC-8 (DST-7)
Local Time:

Weather
METAR:KTMK 142335Z AUTO 00000KT 5SM BR OVC007 12/11 A3040 RMK AO2 P0001

Related Locations
Nearby:
Farthest:FTU: 10935 mi / 17598 km
Tolagnaro [Maurillac Airport (Fort Dauphin Airport)], MG

Find:

   beyond  
but within

Other Information
Maps:
NOTAMs:
Links:
Sources:

  
  • flag of United States
  • flag of Oregon
  

Sectional Chart

Flight Planning
at skyvector.com

Satellite Image

Google Maps Satellite view

 

Copyright © 2004-2018 Karl L. Swartz. All rights reserved.
The Great Circle Mapper name and logo are trademarks of the Great Circle Mapper.
All other trademarks mentioned herein belong to their respective owners.
Please see credits for attibutions and further copyright information.

  Follow gcmap on Facebook Follow gcmap on Twitter Follow gcmap on Google+ GCmap on LinkedIn

hCard Microformat

Geo Microformat